createdAt,value
2022-11-19T00:02:00.341Z,12.30
2022-11-19T00:04:49.801Z,12.20
2022-11-19T00:07:39.405Z,12.00
2022-11-19T00:10:29.054Z,12.00
2022-11-19T00:13:18.456Z,12.00
2022-11-19T00:16:09.121Z,12.00
2022-11-19T00:18:58.369Z,12.10
2022-11-19T00:21:48.982Z,12.00
2022-11-19T00:24:39.620Z,11.90
2022-11-19T00:27:28.933Z,12.00
2022-11-19T00:30:46.420Z,11.90
2022-11-19T00:33:31.248Z,11.90
2022-11-19T00:36:20.293Z,11.90
2022-11-19T00:39:10.085Z,12.00
2022-11-19T00:41:59.124Z,12.00
2022-11-19T00:44:48.607Z,12.00
2022-11-19T00:47:39.327Z,12.00
2022-11-19T00:50:28.184Z,12.00
2022-11-19T00:53:17.237Z,12.00
2022-11-19T00:56:09.210Z,12.10
2022-11-19T00:58:59.306Z,12.00
2022-11-19T01:01:48.573Z,12.00
2022-11-19T01:04:39.457Z,12.00
2022-11-19T01:07:28.633Z,12.00
2022-11-19T01:10:18.717Z,12.00
2022-11-19T01:13:24.959Z,12.00
2022-11-19T01:16:15.932Z,12.00
2022-11-19T01:19:06.465Z,11.90
2022-11-19T01:21:57.619Z,11.80
2022-11-19T01:24:46.596Z,11.80
2022-11-19T01:27:35.523Z,11.70
2022-11-19T01:30:25.052Z,11.60
2022-11-19T01:33:14.934Z,11.70
2022-11-19T01:36:05.627Z,11.70
2022-11-19T01:38:56.632Z,11.70
2022-11-19T01:41:45.708Z,11.70
2022-11-19T01:45:02.673Z,11.70
2022-11-19T01:47:52.617Z,11.80
2022-11-19T01:50:43.388Z,11.80
2022-11-19T01:53:35.561Z,11.80
2022-11-19T01:56:27.263Z,11.80
2022-11-19T01:59:19.417Z,11.60
2022-11-19T02:02:09.013Z,11.60
2022-11-19T02:04:58.859Z,11.50
2022-11-19T02:07:56.689Z,11.60
2022-11-19T02:10:56.736Z,11.60
2022-11-19T02:16:45.141Z,11.10
2022-11-19T02:20:15.822Z,10.80
2022-11-19T02:23:31.834Z,10.70
2022-11-19T02:27:06.509Z,10.60
2022-11-19T02:30:09.019Z,10.80
2022-11-19T02:33:02.632Z,11.00
2022-11-19T02:35:58.719Z,11.00
2022-11-19T02:38:53.417Z,11.00
2022-11-19T08:46:42.831Z,10.90
2022-11-19T08:49:34.542Z,10.70
2022-11-19T08:52:24.140Z,10.50
2022-11-19T08:55:13.810Z,10.50
2022-11-19T08:58:03.312Z,10.50
2022-11-19T09:00:52.683Z,10.50
2022-11-19T09:03:43.784Z,10.60
2022-11-19T09:06:35.493Z,10.80
2022-11-19T09:09:24.963Z,10.90
2022-11-19T09:12:13.777Z,10.90
2022-11-19T09:15:02.673Z,10.90
2022-11-19T09:17:52.455Z,11.00
2022-11-19T09:20:43.134Z,11.10
2022-11-19T09:23:32.500Z,11.10
2022-11-19T09:26:21.675Z,11.10
2022-11-19T09:29:10.826Z,11.00
2022-11-19T09:32:00.056Z,10.90
2022-11-19T09:34:50.121Z,10.90
2022-11-19T09:37:40.997Z,11.00
2022-11-19T09:40:30.254Z,11.00
2022-11-19T09:43:28.465Z,10.90
2022-11-19T09:46:25.107Z,11.00
2022-11-19T09:49:18.446Z,11.00
2022-11-19T09:52:11.348Z,11.00
2022-11-19T09:55:03.898Z,10.70
2022-11-19T09:57:56.832Z,10.40
2022-11-19T10:00:46.967Z,10.50
2022-11-19T10:03:36.328Z,10.50
2022-11-19T10:06:30.954Z,10.40
2022-11-19T10:09:42.496Z,10.40
2022-11-19T10:12:53.349Z,10.30
2022-11-19T10:15:54.612Z,10.40
2022-11-19T10:18:54.349Z,10.50
2022-11-19T10:21:55.056Z,10.50
2022-11-19T10:24:47.501Z,10.60
2022-11-19T10:27:44.592Z,10.70
2022-11-19T10:30:33.414Z,10.80
2022-11-19T10:33:29.502Z,10.80
2022-11-19T10:36:24.534Z,10.60
2022-11-19T10:39:19.652Z,10.70
2022-11-19T10:42:19.578Z,10.80
2022-11-19T10:45:18.081Z,10.60
2022-11-19T10:48:13.042Z,10.60
2022-11-19T10:51:02.186Z,10.80
2022-11-19T10:53:52.605Z,10.80
2022-11-19T10:56:43.889Z,10.80
2022-11-19T10:59:34.499Z,10.80
2022-11-19T11:02:34.052Z,10.90
2022-11-19T11:05:22.942Z,11.00
2022-11-19T11:08:12.671Z,11.00
2022-11-19T11:11:02.195Z,11.10
2022-11-19T11:14:08.830Z,11.20
2022-11-19T11:16:58.302Z,11.20
2022-11-19T11:19:58.827Z,11.30
2022-11-19T11:22:50.191Z,11.40
2022-11-19T11:25:41.640Z,11.50
2022-11-19T11:28:31.426Z,11.50
2022-11-19T11:31:30.809Z,11.40
2022-11-19T11:34:31.692Z,11.30
2022-11-19T11:37:23.085Z,11.30
2022-11-19T11:40:21.200Z,11.40
2022-11-19T11:43:19.703Z,11.50
2022-11-19T11:46:11.186Z,11.40
2022-11-19T11:49:05.867Z,11.40
2022-11-19T11:52:14.260Z,11.50
2022-11-19T11:55:06.891Z,11.50
2022-11-19T11:57:57.672Z,11.50
2022-11-19T12:00:47.805Z,11.40
2022-11-19T12:03:54.106Z,11.50
2022-11-19T12:06:52.067Z,11.50
2022-11-19T12:09:48.098Z,11.50
2022-11-19T12:12:44.349Z,11.50
2022-11-19T12:15:43.807Z,11.50
2022-11-19T12:18:40.563Z,11.50
2022-11-19T12:21:38.248Z,11.50
2022-11-19T12:24:50.325Z,11.50
2022-11-19T12:27:50.972Z,11.50
2022-11-19T12:30:51.614Z,11.40
2022-11-19T12:33:58.722Z,11.40
2022-11-19T12:36:57.269Z,11.30
2022-11-19T12:39:53.786Z,11.20
2022-11-19T12:42:57.552Z,11.20
2022-11-19T12:45:55.917Z,11.30
2022-11-19T12:48:59.213Z,11.20
2022-11-19T12:51:59.026Z,11.20
2022-11-19T12:54:58.318Z,10.90
2022-11-19T12:57:56.903Z,10.90
2022-11-19T13:00:53.928Z,11.00
2022-11-19T13:03:52.008Z,11.00
2022-11-19T13:06:46.892Z,11.10
2022-11-19T13:09:40.769Z,11.00
2022-11-19T13:12:37.118Z,11.10
2022-11-19T13:15:32.047Z,11.30
2022-11-19T13:18:22.671Z,11.20
2022-11-19T13:21:25.087Z,11.30
2022-11-19T13:24:23.968Z,11.40
2022-11-19T13:27:22.740Z,11.40
2022-11-19T13:30:20.177Z,11.50
2022-11-19T13:33:19.858Z,11.50
2022-11-19T13:36:17.191Z,11.60
2022-11-19T13:39:16.690Z,11.60
2022-11-19T13:42:24.727Z,11.60
2022-11-19T13:45:16.345Z,11.60
2022-11-19T13:48:11.607Z,11.70
2022-11-19T13:51:05.614Z,11.80
2022-11-19T15:03:25.528Z,11.50
2022-11-19T15:06:20.032Z,11.60
2022-11-19T15:21:14.411Z,11.80
2022-11-19T15:24:12.418Z,11.90
2022-11-19T15:27:11.399Z,11.90
2022-11-19T15:30:09.045Z,11.90
2022-11-19T15:33:16.520Z,12.00
2022-11-19T15:36:33.620Z,12.00
2022-11-19T15:39:28.370Z,12.00
2022-11-19T15:42:22.420Z,12.00
2022-11-19T15:45:18.129Z,12.10
2022-11-19T15:48:16.072Z,12.00
2022-11-19T15:51:06.514Z,12.00
2022-11-19T15:54:02.944Z,12.00
2022-11-19T15:56:52.698Z,12.00
2022-11-19T15:59:41.926Z,12.00
2022-11-19T16:02:36.836Z,12.00
2022-11-19T16:05:30.124Z,12.00
2022-11-19T16:08:19.543Z,11.90
2022-11-19T16:11:26.137Z,11.90
2022-11-19T16:14:43.124Z,11.70
2022-11-19T16:17:44.185Z,11.60
2022-11-19T16:20:36.344Z,11.70
2022-11-19T16:23:27.484Z,11.70
2022-11-19T16:26:16.427Z,11.70
2022-11-19T16:29:05.993Z,11.80
2022-11-19T16:31:57.982Z,11.60
2022-11-19T16:34:48.572Z,12.30
2022-11-19T16:37:41.678Z,11.70
2022-11-19T16:40:53.506Z,11.70
2022-11-19T16:43:43.931Z,11.60
2022-11-19T16:46:34.327Z,11.60
2022-11-19T16:49:32.186Z,11.60
2022-11-19T16:52:43.876Z,11.60
2022-11-19T16:55:44.317Z,11.60
2022-11-19T16:58:34.024Z,11.60
2022-11-19T17:01:28.134Z,11.60
2022-11-19T17:04:19.934Z,11.70
2022-11-19T17:07:14.763Z,11.60
2022-11-19T17:10:30.548Z,11.70
2022-11-19T17:13:32.836Z,11.70
2022-11-19T17:16:25.239Z,11.70
2022-11-19T17:19:21.462Z,11.70
2022-11-19T17:22:19.689Z,11.80
2022-11-19T17:25:21.399Z,11.80
2022-11-19T17:28:19.739Z,11.80
2022-11-19T17:31:17.063Z,11.70
2022-11-19T17:34:12.762Z,11.60
2022-11-19T17:37:01.714Z,11.60
2022-11-19T17:39:50.700Z,11.60
2022-11-19T17:42:58.282Z,11.70
2022-11-19T17:45:47.524Z,11.70
2022-11-19T17:48:36.537Z,11.70
2022-11-19T17:51:27.002Z,11.70
2022-11-19T17:54:15.736Z,11.70
2022-11-19T17:57:04.700Z,11.70
2022-11-19T17:59:55.174Z,11.70
2022-11-19T18:02:44.671Z,11.70
2022-11-19T18:05:35.800Z,11.70
2022-11-19T18:08:24.882Z,11.70
2022-11-19T18:11:15.558Z,11.60
2022-11-19T18:14:10.182Z,11.40
2022-11-19T18:48:05.051Z,11.70
2022-11-19T18:50:56.769Z,11.80
2022-11-19T18:53:46.242Z,11.70
2022-11-19T18:56:35.171Z,11.60
2022-11-19T18:59:24.613Z,11.60
2022-11-19T19:02:13.399Z,11.50
2022-11-19T19:05:02.215Z,11.50
2022-11-19T19:07:52.970Z,11.60
2022-11-19T19:10:43.020Z,11.60
2022-11-19T19:13:32.144Z,11.60
2022-11-19T19:16:21.683Z,11.70
2022-11-19T19:19:14.789Z,11.70
2022-11-19T19:22:03.647Z,11.70
2022-11-19T19:24:58.163Z,11.70
2022-11-19T19:27:47.930Z,11.80
2022-11-19T19:30:37.236Z,11.70
2022-11-19T19:33:26.967Z,11.70
2022-11-19T19:36:18.172Z,11.80
2022-11-19T19:39:06.903Z,11.70
2022-11-19T19:41:57.432Z,11.80
2022-11-19T19:44:46.918Z,11.80
2022-11-19T19:47:35.782Z,11.90
2022-11-19T19:50:24.795Z,11.90
2022-11-19T19:53:13.643Z,11.80
2022-11-19T19:56:06.049Z,11.70
2022-11-19T19:58:57.025Z,11.80
2022-11-19T20:01:47.939Z,11.90
2022-11-19T20:04:36.976Z,11.90
2022-11-19T20:07:26.163Z,11.90
2022-11-19T20:10:15.722Z,11.90
2022-11-19T20:13:22.185Z,11.90
2022-11-19T20:16:18.164Z,11.90
2022-11-19T20:19:09.215Z,11.90
2022-11-19T20:21:58.730Z,11.80
2022-11-19T20:24:47.891Z,11.80
2022-11-19T20:27:37.671Z,11.80
2022-11-19T20:30:26.735Z,11.80
2022-11-19T20:33:17.776Z,11.80
2022-11-19T20:36:07.963Z,11.80
2022-11-19T20:38:57.752Z,11.80
2022-11-19T20:42:04.585Z,11.80
2022-11-19T20:44:54.055Z,11.70
2022-11-19T20:47:43.297Z,11.70
2022-11-19T20:50:34.968Z,11.70
2022-11-19T20:53:24.616Z,11.70
2022-11-19T20:56:15.218Z,11.70
2022-11-19T20:59:05.355Z,11.70
2022-11-19T21:01:55.383Z,11.70
2022-11-19T21:04:45.030Z,11.80
2022-11-19T21:07:35.735Z,11.70
2022-11-19T21:10:24.542Z,11.70
2022-11-19T21:13:13.327Z,11.70
2022-11-19T21:16:06.759Z,11.70
2022-11-19T21:18:56.766Z,11.70
2022-11-19T21:21:45.759Z,11.80
2022-11-19T21:24:36.838Z,11.70
2022-11-19T21:27:26.387Z,11.70
2022-11-19T21:30:19.242Z,11.70
2022-11-19T21:33:08.634Z,11.70
2022-11-19T21:35:59.589Z,11.80
2022-11-19T21:38:49.703Z,11.70
2022-11-19T21:41:40.022Z,11.70
2022-11-19T21:44:29.540Z,11.90
2022-11-19T21:47:18.341Z,11.70
2022-11-19T21:50:08.249Z,11.60
2022-11-19T21:52:57.590Z,11.60
2022-11-19T21:55:47.813Z,11.60
2022-11-19T21:58:38.579Z,11.70
2022-11-19T22:01:28.156Z,11.70
2022-11-19T22:04:17.543Z,11.70
2022-11-19T22:07:07.484Z,11.60
2022-11-19T22:09:58.319Z,11.60
2022-11-19T22:12:49.529Z,11.70
2022-11-19T22:15:42.559Z,11.60
2022-11-19T22:18:31.477Z,11.60
2022-11-19T22:21:20.866Z,11.70
2022-11-19T22:24:09.932Z,11.70
2022-11-19T22:26:58.812Z,11.80
2022-11-19T22:29:49.723Z,11.80
2022-11-19T22:32:40.247Z,11.80
2022-11-19T22:35:29.168Z,11.80
2022-11-19T22:38:18.650Z,11.80
2022-11-19T22:41:09.458Z,11.80
2022-11-19T22:43:59.814Z,11.80
2022-11-19T22:46:49.164Z,11.80
2022-11-19T22:49:39.690Z,11.80
2022-11-19T22:52:28.442Z,11.80
2022-11-19T22:55:18.218Z,11.80
2022-11-19T22:58:06.909Z,11.80
2022-11-19T23:00:56.284Z,11.80
2022-11-19T23:03:45.824Z,11.80
2022-11-19T23:06:37.026Z,11.70
2022-11-19T23:09:26.416Z,11.60
2022-11-19T23:12:32.777Z,11.70
2022-11-19T23:15:21.581Z,11.80
2022-11-19T23:18:11.038Z,11.80
2022-11-19T23:21:01.454Z,11.80
2022-11-19T23:23:52.674Z,11.80
2022-11-19T23:26:42.167Z,11.80
2022-11-19T23:29:31.162Z,11.90
2022-11-19T23:32:20.358Z,11.80
2022-11-19T23:35:10.607Z,11.80
2022-11-19T23:38:00.176Z,11.70
2022-11-19T23:40:59.138Z,11.70
2022-11-19T23:43:48.646Z,11.80
2022-11-19T23:46:38.568Z,11.80
2022-11-19T23:49:27.824Z,11.80
2022-11-19T23:52:17.147Z,11.80
2022-11-19T23:55:07.329Z,11.80
2022-11-19T23:57:58.602Z,11.70
